Home > Products > Valid Products > TAF

000
FTUS43 KGID 221120
TAFGRI
TAF
KGRI 221120Z 2212/2312 18005KT P6SM FEW050 BKN120
     FM221400 18010KT P6SM VCSH OVC050
     FM221700 15012KT P6SM -RA OVC025
     FM230000 12010KT P6SM -DZ BKN010 OVC025
     FM230400 11008KT 4SM -DZ BR OVC005=



000
FTUS43 KGID 221120
TAFGRI
TAF
KGRI 221120Z 2212/2312 18005KT P6SM FEW050 BKN120
     FM221400 18010KT P6SM VCSH OVC050
     FM221700 15012KT P6SM -RA OVC025
     FM230000 12010KT P6SM -DZ BKN010 OVC025
     FM230400 11008KT 4SM -DZ BR OVC005=



000
FTUS43 KGID 221120
TAFGRI
TAF
KGRI 221120Z 2212/2312 18005KT P6SM FEW050 BKN120
     FM221400 18010KT P6SM VCSH OVC050
     FM221700 15012KT P6SM -RA OVC025
     FM230000 12010KT P6SM -DZ BKN010 OVC025
     FM230400 11008KT 4SM -DZ BR OVC005=



000
FTUS43 KGID 221120
TAFGRI
TAF
KGRI 221120Z 2212/2312 18005KT P6SM FEW050 BKN120
     FM221400 18010KT P6SM VCSH OVC050
     FM221700 15012KT P6SM -RA OVC025
     FM230000 12010KT P6SM -DZ BKN010 OVC025
     FM230400 11008KT 4SM -DZ BR OVC005=



000
FTUS43 KGID 220531
TAFGRI
TAF
KGRI 220531Z 2206/2306 18005KT P6SM FEW050 BKN120
     FM221500 18010KT P6SM VCSH OVC050
     FM221800 15012KT P6SM VCSH OVC025
     FM230000 12010KT P6SM -DZ BKN010 OVC025=



000
FTUS43 KGID 220531
TAFGRI
TAF
KGRI 220531Z 2206/2306 18005KT P6SM FEW050 BKN120
     FM221500 18010KT P6SM VCSH OVC050
     FM221800 15012KT P6SM VCSH OVC025
     FM230000 12010KT P6SM -DZ BKN010 OVC025=



000
FTUS43 KGID 220531
TAFGRI
TAF
KGRI 220531Z 2206/2306 18005KT P6SM FEW050 BKN120
     FM221500 18010KT P6SM VCSH OVC050
     FM221800 15012KT P6SM VCSH OVC025
     FM230000 12010KT P6SM -DZ BKN010 OVC025=



000
FTUS43 KGID 220531
TAFGRI
TAF
KGRI 220531Z 2206/2306 18005KT P6SM FEW050 BKN120
     FM221500 18010KT P6SM VCSH OVC050
     FM221800 15012KT P6SM VCSH OVC025
     FM230000 12010KT P6SM -DZ BKN010 OVC025=



000
FTUS43 KGID 212322
TAFGRI
TAF
KGRI 212322Z 2200/2224 18005KT P6SM FEW070
     FM221500 18010KT P6SM VCSH OVC050
     FM221800 15012KT P6SM VCSH OVC025=



000
FTUS43 KGID 212322
TAFGRI
TAF
KGRI 212322Z 2200/2224 18005KT P6SM FEW070
     FM221500 18010KT P6SM VCSH OVC050
     FM221800 15012KT P6SM VCSH OVC025=



000
FTUS43 KGID 212322
TAFGRI
TAF
KGRI 212322Z 2200/2224 18005KT P6SM FEW070
     FM221500 18010KT P6SM VCSH OVC050
     FM221800 15012KT P6SM VCSH OVC025=



000
FTUS43 KGID 212322
TAFGRI
TAF
KGRI 212322Z 2200/2224 18005KT P6SM FEW070
     FM221500 18010KT P6SM VCSH OVC050
     FM221800 15012KT P6SM VCSH OVC025=



000
FTUS43 KGID 211727
TAFGRI
TAF
KGRI 211727Z 2118/2218 VRB04KT P6SM SKC
     FM220000 18006KT P6SM SCT120
     FM221400 16010KT P6SM VCSH OVC070=



000
FTUS43 KGID 211727
TAFGRI
TAF
KGRI 211727Z 2118/2218 VRB04KT P6SM SKC
     FM220000 18006KT P6SM SCT120
     FM221400 16010KT P6SM VCSH OVC070=



000
FTUS43 KGID 211130
TAFGRI
TAF
KGRI 211130Z 2112/2212 28005KT P6SM FEW150
     FM211700 VRB04KT P6SM FEW150
     FM220000 18006KT P6SM SCT120=



000
FTUS43 KGID 210535
TAFGRI
TAF
KGRI 210535Z 2106/2206 VRB04KT P6SM FEW150
     FM211100 28006KT P6SM FEW150
     FM211800 VRB04KT P6SM FEW150=



000
FTUS43 KGID 210535
TAFGRI
TAF
KGRI 210535Z 2106/2206 VRB04KT P6SM FEW150
     FM211100 28006KT P6SM FEW150
     FM211800 VRB04KT P6SM FEW150=



000
FTUS43 KGID 202328
TAFGRI
TAF
KGRI 202328Z 2100/2124 35008KT P6SM BKN035 OVC045
     FM210300 VRB04KT P6SM SCT035
     FM211100 VRB05KT 6SM BR FEW100
     FM211400 VRB04KT P6SM FEW150=



000
FTUS43 KGID 202328
TAFGRI
TAF
KGRI 202328Z 2100/2124 35008KT P6SM BKN035 OVC045
     FM210300 VRB04KT P6SM SCT035
     FM211100 VRB05KT 6SM BR FEW100
     FM211400 VRB04KT P6SM FEW150=



000
FTUS43 KGID 202328
TAFGRI
TAF
KGRI 202328Z 2100/2124 35008KT P6SM BKN035 OVC045
     FM210300 VRB04KT P6SM SCT035
     FM211100 VRB05KT 6SM BR FEW100
     FM211400 VRB04KT P6SM FEW150=



000
FTUS43 KGID 202328
TAFGRI
TAF
KGRI 202328Z 2100/2124 35008KT P6SM BKN035 OVC045
     FM210300 VRB04KT P6SM SCT035
     FM211100 VRB05KT 6SM BR FEW100
     FM211400 VRB04KT P6SM FEW150=



000
FTUS43 KGID 201759 CCA
TAFGRI
TAF COR
KGRI 201759Z 2018/2118 01008KT P6SM VCSH SCT015 BKN030
     FM202000 36008KT P6SM SCT015 BKN035
     FM210600 31004KT P6SM SCT035 SCT150
     FM210800 31004KT 5SM BR FEW005 SCT150=



000
FTUS43 KGID 201759 CCA
TAFGRI
TAF COR
KGRI 201759Z 2018/2118 01008KT P6SM VCSH SCT015 BKN030
     FM202000 36008KT P6SM SCT015 BKN035
     FM210600 31004KT P6SM SCT035 SCT150
     FM210800 31004KT 5SM BR FEW005 SCT150=



000
FTUS43 KGID 201759 CCA
TAFGRI
TAF COR
KGRI 201759Z 2018/2118 01008KT P6SM VCSH SCT015 BKN030
     FM202000 36008KT P6SM SCT015 BKN035
     FM210600 31004KT P6SM SCT035 SCT150
     FM210800 31004KT 5SM BR FEW005 SCT150=



000
FTUS43 KGID 201724
TAFGRI
TAF
KGRI 201724Z 2018/2118 01008KT P6SM VCSH SCT015 BKN030
      TEMPO 2018/2020 6SM -RA FEW008 BKN015
     FM202000 36008KT P6SM SCT015 BKN035
     FM210600 31004KT P6SM SCT035 SCT150
     FM210800 31004KT 5SM BR FEW005 SCT150=



000
FTUS43 KGID 201724
TAFGRI
TAF
KGRI 201724Z 2018/2118 01008KT P6SM VCSH SCT015 BKN030
      TEMPO 2018/2020 6SM -RA FEW008 BKN015
     FM202000 36008KT P6SM SCT015 BKN035
     FM210600 31004KT P6SM SCT035 SCT150
     FM210800 31004KT 5SM BR FEW005 SCT150=



000
FTUS43 KGID 201724
TAFGRI
TAF
KGRI 201724Z 2018/2118 01008KT P6SM VCSH SCT015 BKN030
      TEMPO 2018/2020 6SM -RA FEW008 BKN015
     FM202000 36008KT P6SM SCT015 BKN035
     FM210600 31004KT P6SM SCT035 SCT150
     FM210800 31004KT 5SM BR FEW005 SCT150=



000
FTUS43 KGID 201724
TAFGRI
TAF
KGRI 201724Z 2018/2118 01008KT P6SM VCSH SCT015 BKN030
      TEMPO 2018/2020 6SM -RA FEW008 BKN015
     FM202000 36008KT P6SM SCT015 BKN035
     FM210600 31004KT P6SM SCT035 SCT150
     FM210800 31004KT 5SM BR FEW005 SCT150=



000
FTUS43 KGID 201527 AAB
TAFGRI
TAF AMD
KGRI 201527Z 2015/2112 01008KT P6SM VCSH BKN015 BKN025
      TEMPO 2015/2016 3SM -DZ FEW006 BKN010
     FM202000 36008KT P6SM SCT015 BKN035
     FM210600 31004KT P6SM SCT035 SCT150=



000
FTUS43 KGID 201527 AAB
TAFGRI
TAF AMD
KGRI 201527Z 2015/2112 01008KT P6SM VCSH BKN015 BKN025
      TEMPO 2015/2016 3SM -DZ FEW006 BKN010
     FM202000 36008KT P6SM SCT015 BKN035
     FM210600 31004KT P6SM SCT035 SCT150=



000
FTUS43 KGID 201306 AAA
TAFGRI
TAF AMD
KGRI 201306Z 2013/2112 01008KT 6SM BR VCSH BKN015
      TEMPO 2013/2016 2SM -DZ BKN005
     FM202000 36008KT P6SM SCT015 BKN035
     FM210600 31004KT P6SM SCT035 SCT150=



000
FTUS43 KGID 201306 AAA
TAFGRI
TAF AMD
KGRI 201306Z 2013/2112 01008KT 6SM BR VCSH BKN015
      TEMPO 2013/2016 2SM -DZ BKN005
     FM202000 36008KT P6SM SCT015 BKN035
     FM210600 31004KT P6SM SCT035 SCT150=



000
FTUS43 KGID 201306 AAA
TAFGRI
TAF AMD
KGRI 201306Z 2013/2112 01008KT 6SM BR VCSH BKN015
      TEMPO 2013/2016 2SM -DZ BKN005
     FM202000 36008KT P6SM SCT015 BKN035
     FM210600 31004KT P6SM SCT035 SCT150=



000
FTUS43 KGID 201120
TAFGRI
TAF
KGRI 201120Z 2012/2112 01008KT 6SM BR VCSH BKN015
      TEMPO 2012/2016 3SM -DZ BKN008
     FM202000 36008KT P6SM SCT015 BKN035
     FM210600 31004KT P6SM SCT035 SCT150=



000
FTUS43 KGID 201120
TAFGRI
TAF
KGRI 201120Z 2012/2112 01008KT 6SM BR VCSH BKN015
      TEMPO 2012/2016 3SM -DZ BKN008
     FM202000 36008KT P6SM SCT015 BKN035
     FM210600 31004KT P6SM SCT035 SCT150=



000
FTUS43 KGID 201120
TAFGRI
TAF
KGRI 201120Z 2012/2112 01008KT 6SM BR VCSH BKN015
      TEMPO 2012/2016 3SM -DZ BKN008
     FM202000 36008KT P6SM SCT015 BKN035
     FM210600 31004KT P6SM SCT035 SCT150=



000
FTUS43 KGID 201120
TAFGRI
TAF
KGRI 201120Z 2012/2112 01008KT 6SM BR VCSH BKN015
      TEMPO 2012/2016 3SM -DZ BKN008
     FM202000 36008KT P6SM SCT015 BKN035
     FM210600 31004KT P6SM SCT035 SCT150=



000
FTUS43 KGID 200727 AAA
TAFGRI
TAF AMD
KGRI 200727Z 2007/2106 01006KT 6SM -DZ BR BKN015
      TEMPO 2008/2012 3SM BR BKN007
     FM201200 01008KT P6SM BKN015
     FM202000 36006KT P6SM SCT020 BKN040=



000
FTUS43 KGID 200727 AAA
TAFGRI
TAF AMD
KGRI 200727Z 2007/2106 01006KT 6SM -DZ BR BKN015
      TEMPO 2008/2012 3SM BR BKN007
     FM201200 01008KT P6SM BKN015
     FM202000 36006KT P6SM SCT020 BKN040=



000
FTUS43 KGID 200523
TAFGRI
TAF
KGRI 200523Z 2006/2106 01006KT 6SM -RA BKN025
      TEMPO 2006/2008 5SM -RA BKN015
     FM200800 01006KT 6SM -DZ BR BKN015
      TEMPO 2008/2012 BKN007
     FM201200 01008KT P6SM BKN015
     FM202000 36006KT P6SM SCT020 BKN040=



000
FTUS43 KGID 200523
TAFGRI
TAF
KGRI 200523Z 2006/2106 01006KT 6SM -RA BKN025
      TEMPO 2006/2008 5SM -RA BKN015
     FM200800 01006KT 6SM -DZ BR BKN015
      TEMPO 2008/2012 BKN007
     FM201200 01008KT P6SM BKN015
     FM202000 36006KT P6SM SCT020 BKN040=



000
FTUS43 KGID 200217 AAB
TAFGRI
TAF AMD
KGRI 200217Z 2002/2024 04010KT P6SM -RA SCT020 OVC150
     FM200400 05009KT P6SM -RA BKN020 OVC150
     FM201200 04008KT P6SM OVC020
     FM202100 36006KT P6SM SCT020 BKN150=



000
FTUS43 KGID 200217 AAB
TAFGRI
TAF AMD
KGRI 200217Z 2002/2024 04010KT P6SM -RA SCT020 OVC150
     FM200400 05009KT P6SM -RA BKN020 OVC150
     FM201200 04008KT P6SM OVC020
     FM202100 36006KT P6SM SCT020 BKN150=



000
FTUS43 KGID 200217 AAB
TAFGRI
TAF AMD
KGRI 200217Z 2002/2024 04010KT P6SM -RA SCT020 OVC150
     FM200400 05009KT P6SM -RA BKN020 OVC150
     FM201200 04008KT P6SM OVC020
     FM202100 36006KT P6SM SCT020 BKN150=



000
FTUS43 KGID 200010 AAA
TAFGRI
TAF AMD
KGRI 200010Z 2000/2024 05018KT P6SM -RA OVC020
     FM201200 04008KT P6SM OVC020
     FM202100 36006KT P6SM SCT020 BKN150=



000
FTUS43 KGID 200010 AAA
TAFGRI
TAF AMD
KGRI 200010Z 2000/2024 05018KT P6SM -RA OVC020
     FM201200 04008KT P6SM OVC020
     FM202100 36006KT P6SM SCT020 BKN150=



000
FTUS43 KGID 200010 AAA
TAFGRI
TAF AMD
KGRI 200010Z 2000/2024 05018KT P6SM -RA OVC020
     FM201200 04008KT P6SM OVC020
     FM202100 36006KT P6SM SCT020 BKN150=



000
FTUS43 KGID 192340
TAFGRI
TAF
KGRI 192340Z 2000/2024 05018KT P6SM OVC020
     FM201200 04008KT P6SM OVC020
     FM202100 36006KT P6SM SCT020 BKN150=



000
FTUS43 KGID 192340
TAFGRI
TAF
KGRI 192340Z 2000/2024 05018KT P6SM OVC020
     FM201200 04008KT P6SM OVC020
     FM202100 36006KT P6SM SCT020 BKN150=



000
FTUS43 KGID 191914 AAA
TAFGRI
TAF AMD
KGRI 191914Z 1919/2018 07011KT P6SM VCSH SCT020 BKN050 OVC090
     FM192000 05011G16KT 6SM -SHRA FEW010 SCT020 BKN035
      TEMPO 1920/1922 BKN020
     FM200100 04009KT 6SM -RA BKN010 OVC020
     FM200400 04007KT 4SM -RA BKN008 OVC020
     FM201100 03007KT 5SM BR VCSH BKN010=



000
FTUS43 KGID 191914 AAA
TAFGRI
TAF AMD
KGRI 191914Z 1919/2018 07011KT P6SM VCSH SCT020 BKN050 OVC090
     FM192000 05011G16KT 6SM -SHRA FEW010 SCT020 BKN035
      TEMPO 1920/1922 BKN020
     FM200100 04009KT 6SM -RA BKN010 OVC020
     FM200400 04007KT 4SM -RA BKN008 OVC020
     FM201100 03007KT 5SM BR VCSH BKN010=



    US Dept of Commerce
    National Oceanic and Atmospheric Administration
    National Weather Service
    1325 East West Highway
    Silver Spring, MD 20910
    Page Author: NWS Internet Services Team
Disclaimer
Information Quality
Credits
Glossary
Privacy Policy
Freedom of Information Act (FOIA)
About Us
Career Opportunities